createdAt,value
2022-10-19T00:00:50.554Z,101089.56
2022-10-19T00:03:20.698Z,101094.97
2022-10-19T00:05:49.818Z,101094.94
2022-10-19T00:08:16.415Z,101085.41
2022-10-19T00:10:43.071Z,101091.44
2022-10-19T00:13:09.820Z,101104.78
2022-10-19T00:15:45.759Z,101102.19
2022-10-19T00:18:12.557Z,101105.66
2022-10-19T00:20:39.717Z,101094.09
2022-10-19T00:23:06.462Z,101091.47
2022-10-19T00:25:33.070Z,101096.56
2022-10-19T00:28:00.518Z,101086.28
2022-10-19T00:30:27.123Z,101086.94
2022-10-19T00:32:53.753Z,101080.87
2022-10-19T00:35:20.391Z,101080.00
2022-10-19T00:37:47.009Z,101078.41
2022-10-19T00:40:13.697Z,101077.72
2022-10-19T00:42:40.335Z,101085.56
2022-10-19T00:45:19.670Z,101084.66
2022-10-19T00:47:47.184Z,101082.00
2022-10-19T00:50:14.851Z,101077.78
2022-10-19T00:52:41.832Z,101076.06
2022-10-19T00:55:09.261Z,101076.09
2022-10-19T00:57:36.060Z,101062.09
2022-10-19T01:00:07.308Z,101055.00
2022-10-19T01:02:34.465Z,101065.56
2022-10-19T01:05:19.981Z,101064.66
2022-10-19T01:07:46.624Z,101064.53
2022-10-19T01:10:13.394Z,101069.91
2022-10-19T01:12:40.003Z,101057.72
2022-10-19T01:15:06.701Z,101045.41
2022-10-19T01:17:39.337Z,101043.72
2022-10-19T01:20:11.733Z,101044.56
2022-10-19T01:22:50.615Z,101046.28
2022-10-19T01:25:20.281Z,101039.31
2022-10-19T01:28:05.414Z,101042.88
2022-10-19T01:30:34.744Z,101037.50
2022-10-19T01:33:06.856Z,101034.09
2022-10-19T01:35:37.914Z,101036.63
2022-10-19T01:38:14.558Z,101035.72
2022-10-19T01:40:49.219Z,101033.91
2022-10-19T01:43:18.881Z,101034.84
2022-10-19T01:46:13.902Z,101036.59
2022-10-19T01:48:42.822Z,101033.09
2022-10-19T01:51:18.473Z,101027.06
2022-10-19T01:53:47.757Z,101030.56
2022-10-19T01:56:17.158Z,101031.44
2022-10-19T01:58:45.213Z,101030.50
2022-10-19T02:01:12.686Z,101025.12
2022-10-19T02:03:40.391Z,101024.34
2022-10-19T02:06:10.033Z,101033.16
2022-10-19T02:08:56.949Z,101019.94
2022-10-19T02:11:23.847Z,101033.00
2022-10-19T02:13:54.805Z,101023.31
2022-10-19T02:16:27.126Z,101020.56
2022-10-19T02:18:55.299Z,101024.84
2022-10-19T02:21:22.020Z,101024.88
2022-10-19T02:23:50.585Z,101019.53
2022-10-19T02:26:21.395Z,101016.84
2022-10-19T02:28:48.661Z,101017.50
2022-10-19T02:31:15.468Z,101004.91
2022-10-19T02:33:42.520Z,101004.75
2022-10-19T02:36:09.268Z,101001.28
2022-10-19T02:38:36.051Z,100990.53
2022-10-19T02:41:16.663Z,100991.19
2022-10-19T02:43:45.715Z,100990.16
2022-10-19T02:46:31.631Z,100980.41
2022-10-19T02:48:59.358Z,100995.28
2022-10-19T02:51:30.792Z,100993.34
2022-10-19T02:53:59.019Z,100984.94
2022-10-19T02:56:29.387Z,100992.16
2022-10-19T02:58:56.644Z,100991.03
2022-10-19T03:01:24.032Z,100989.31
2022-10-19T03:03:51.608Z,100987.78
2022-10-19T03:06:18.359Z,100986.91
2022-10-19T03:08:46.370Z,100990.13
2022-10-19T03:11:14.561Z,100990.38
2022-10-19T03:13:41.781Z,100984.31
2022-10-19T03:16:09.899Z,100982.31
2022-10-19T03:18:36.524Z,100987.25
2022-10-19T03:21:04.144Z,100989.00
2022-10-19T03:23:30.775Z,100992.66
2022-10-19T03:25:57.379Z,100989.81
2022-10-19T03:28:23.995Z,100998.06
2022-10-19T03:30:50.561Z,101001.22
2022-10-19T03:33:17.229Z,101010.19
2022-10-19T03:35:43.856Z,101011.72
2022-10-19T03:38:10.456Z,101006.94
2022-10-19T03:40:37.275Z,101001.59
2022-10-19T03:43:04.133Z,101022.84
2022-10-19T03:45:30.975Z,101011.56
2022-10-19T03:47:57.821Z,101015.94
2022-10-19T03:50:24.761Z,101029.91
2022-10-19T03:52:53.681Z,101038.03
2022-10-19T03:55:20.448Z,101049.63
2022-10-19T03:57:47.210Z,101049.00
2022-10-19T04:00:14.238Z,101051.28
2022-10-19T04:02:41.698Z,101053.97
2022-10-19T04:05:08.505Z,101058.34
2022-10-19T04:07:35.367Z,101050.09
2022-10-19T04:10:02.140Z,101058.16
2022-10-19T04:12:28.723Z,101060.78
2022-10-19T04:14:57.587Z,101061.72
2022-10-19T04:17:24.753Z,101061.69
2022-10-19T04:19:51.471Z,101069.22
2022-10-19T04:22:18.085Z,101070.69
2022-10-19T04:24:44.668Z,101067.31
2022-10-19T04:27:11.311Z,101071.59
2022-10-19T04:29:37.969Z,101070.09
2022-10-19T04:32:04.598Z,101073.78
2022-10-19T04:34:31.580Z,101072.19
2022-10-19T04:36:59.702Z,101086.16
2022-10-19T04:39:26.454Z,101077.72
2022-10-19T04:41:53.131Z,101076.91
2022-10-19T04:44:19.999Z,101081.81
2022-10-19T04:46:46.764Z,101081.91
2022-10-19T04:49:16.443Z,101070.81
2022-10-19T04:51:46.066Z,101067.22
2022-10-19T04:54:12.711Z,101072.16
2022-10-19T04:56:39.736Z,101072.22
2022-10-19T04:59:06.364Z,101078.50
2022-10-19T05:01:33.041Z,101080.00
2022-10-19T05:04:01.028Z,101078.00
2022-10-19T05:06:28.114Z,101070.06
2022-10-19T05:08:54.893Z,101074.66
2022-10-19T05:11:21.585Z,101079.25
2022-10-19T05:13:48.562Z,101077.78
2022-10-19T05:16:16.830Z,101081.63
2022-10-19T05:18:46.563Z,101083.47
2022-10-19T05:21:13.863Z,101082.59
2022-10-19T05:23:41.053Z,101085.66
2022-10-19T05:26:10.551Z,101091.59
2022-10-19T05:31:40.609Z,101099.84
2022-10-19T05:34:19.190Z,101107.41
2022-10-19T05:36:49.091Z,101108.66
2022-10-19T05:39:17.143Z,101106.16
2022-10-19T05:41:44.860Z,101105.41
2022-10-19T05:44:18.283Z,101101.44
2022-10-19T05:46:45.187Z,101106.66
2022-10-19T05:49:39.566Z,101115.91
2022-10-19T05:52:06.475Z,101109.34
2022-10-19T05:54:33.412Z,101096.16
2022-10-19T05:57:02.418Z,101098.09
2022-10-19T05:59:36.157Z,101099.41
2022-10-19T06:02:11.192Z,101103.19
2022-10-19T06:04:47.229Z,101110.59
2022-10-19T06:10:36.740Z,101117.16
2022-10-19T06:13:03.860Z,101119.72
2022-10-19T06:15:40.256Z,101127.38
2022-10-19T06:18:17.979Z,101130.78
2022-10-19T06:20:44.947Z,101128.00
2022-10-19T06:23:13.605Z,101120.03
2022-10-19T06:26:05.856Z,101125.94
2022-10-19T06:28:42.589Z,101133.06
2022-10-19T06:31:25.423Z,101137.75
2022-10-19T06:33:56.017Z,101145.47
2022-10-19T06:36:41.575Z,101148.53
2022-10-19T06:39:26.064Z,101155.72
2022-10-19T06:42:01.967Z,101157.00
2022-10-19T06:44:31.748Z,101160.16
2022-10-19T06:47:01.317Z,101160.38
2022-10-19T06:49:48.083Z,101162.22
2022-10-19T06:52:39.687Z,101166.03
2022-10-19T06:55:08.741Z,101166.75
2022-10-19T06:57:57.900Z,101161.12
2022-10-19T07:03:25.666Z,101158.72
2022-10-19T07:08:53.438Z,101166.16
2022-10-19T07:11:48.182Z,101169.00
2022-10-19T07:17:52.679Z,101173.44
2022-10-19T07:20:25.586Z,101175.44
2022-10-19T07:22:52.527Z,101183.13
2022-10-19T07:25:19.329Z,101178.31
2022-10-19T07:27:52.088Z,101185.47
2022-10-19T07:30:21.288Z,101190.75
2022-10-19T07:32:48.117Z,101191.50
2022-10-19T07:35:15.587Z,101194.81
2022-10-19T07:37:43.787Z,101188.44
2022-10-19T07:40:17.125Z,101194.62
2022-10-19T07:42:46.357Z,101195.34
2022-10-19T07:45:17.400Z,101198.59
2022-10-19T07:50:53.040Z,101191.22
2022-10-19T07:59:40.044Z,101196.22
2022-10-19T08:02:14.305Z,101197.59
2022-10-19T08:05:11.587Z,101193.31
2022-10-19T08:07:39.103Z,101195.97
2022-10-19T08:10:28.714Z,101194.56
2022-10-19T08:12:57.673Z,101193.13
2022-10-19T08:15:28.762Z,101201.66
2022-10-19T08:18:29.204Z,101199.22
2022-10-19T08:21:22.289Z,101191.34
2022-10-19T08:23:50.696Z,101188.94
2022-10-19T08:29:05.643Z,101191.88
2022-10-19T08:31:40.903Z,101203.94
2022-10-19T08:34:10.448Z,101193.56
2022-10-19T08:36:37.478Z,101187.50
2022-10-19T08:39:06.883Z,101196.19
2022-10-19T08:41:51.978Z,101185.44
2022-10-19T08:44:35.914Z,101180.72
2022-10-19T08:47:12.524Z,101190.91
2022-10-19T08:49:40.581Z,101187.91
2022-10-19T08:52:16.532Z,101178.22
2022-10-19T08:54:56.130Z,101175.81
2022-10-19T08:57:38.400Z,101179.09
2022-10-19T09:00:11.601Z,101172.59
2022-10-19T09:02:41.472Z,101171.50
2022-10-19T09:05:14.281Z,101165.13
2022-10-19T09:07:46.085Z,101165.84
2022-10-19T09:10:19.368Z,101171.44
2022-10-19T09:12:55.132Z,101168.84
2022-10-19T09:15:46.142Z,101168.50
2022-10-19T09:18:35.179Z,101164.78
2022-10-19T09:21:08.936Z,101162.00
2022-10-19T09:23:41.513Z,101171.91
2022-10-19T09:26:14.175Z,101182.87
2022-10-19T09:28:59.855Z,101172.34
2022-10-19T09:31:38.276Z,101178.03
2022-10-19T09:34:28.040Z,101172.41
2022-10-19T09:36:59.329Z,101164.41
2022-10-19T09:39:29.795Z,101172.37
2022-10-19T09:41:58.015Z,101188.84
2022-10-19T09:44:25.708Z,101186.56
2022-10-19T09:46:52.788Z,101175.53
2022-10-19T09:49:38.051Z,101184.38
2022-10-19T09:52:06.425Z,101184.94
2022-10-19T09:54:40.399Z,101187.75
2022-10-19T09:57:21.650Z,101179.59
2022-10-19T09:59:51.509Z,101176.59
2022-10-19T10:02:19.806Z,101182.87
2022-10-19T10:04:57.178Z,101178.53
2022-10-19T10:07:27.001Z,101170.91
2022-10-19T10:09:53.801Z,101173.31
2022-10-19T10:12:22.963Z,101173.94
2022-10-19T10:14:50.152Z,101166.50
2022-10-19T10:17:28.451Z,101174.00
2022-10-19T10:19:58.289Z,101174.12
2022-10-19T10:22:39.378Z,101162.63
2022-10-19T10:25:16.533Z,101159.91
2022-10-19T10:27:53.659Z,101156.59
2022-10-19T10:30:20.776Z,101154.22
2022-10-19T10:32:49.661Z,101156.50
2022-10-19T10:35:34.605Z,101149.06
2022-10-19T10:38:08.576Z,101138.84
2022-10-19T10:40:35.345Z,101132.47
2022-10-19T10:43:06.259Z,101125.66
2022-10-19T10:45:35.861Z,101129.38
2022-10-19T10:48:25.794Z,101118.34
2022-10-19T10:50:55.392Z,101121.94
2022-10-19T10:53:32.547Z,101120.50
2022-10-19T10:55:59.485Z,101121.16
2022-10-19T10:58:37.911Z,101128.34
2022-10-19T11:01:08.094Z,101116.81
2022-10-19T11:03:49.394Z,101126.00
2022-10-19T11:09:08.376Z,101116.91
2022-10-19T11:11:42.525Z,101108.31
2022-10-19T11:14:30.633Z,101103.50
2022-10-19T11:16:59.872Z,101089.91
2022-10-19T11:19:27.712Z,101087.09
2022-10-19T11:22:13.267Z,101082.38
2022-10-19T11:24:46.367Z,101076.06
2022-10-19T11:27:34.496Z,101075.94
2022-10-19T11:30:09.977Z,101083.50
2022-10-19T11:32:52.140Z,101083.31
2022-10-19T11:35:45.830Z,101073.78
2022-10-19T11:38:31.587Z,101066.47
2022-10-19T11:41:22.591Z,101067.53
2022-10-19T11:43:57.221Z,101057.94
2022-10-19T11:46:29.229Z,101051.19
2022-10-19T11:49:03.782Z,101047.66
2022-10-19T11:51:35.519Z,101061.41
2022-10-19T11:54:02.439Z,101054.28
2022-10-19T11:57:08.299Z,101060.69
2022-10-19T12:00:00.231Z,101052.03
2022-10-19T12:02:38.386Z,101043.22
2022-10-19T12:05:10.715Z,101035.66
2022-10-19T12:07:46.439Z,101046.16
2022-10-19T12:10:21.176Z,101042.25
2022-10-19T12:12:59.590Z,101041.28
2022-10-19T12:15:49.747Z,101025.72
2022-10-19T12:18:21.319Z,101027.81
2022-10-19T12:20:50.335Z,101031.47
2022-10-19T12:23:23.691Z,101025.66
2022-10-19T12:25:51.571Z,101024.47
2022-10-19T12:28:22.040Z,101032.12
2022-10-19T12:30:49.167Z,101025.81
2022-10-19T12:33:20.923Z,101024.78
2022-10-19T12:36:01.645Z,101016.72
2022-10-19T12:38:34.991Z,101010.63
2022-10-19T12:41:14.630Z,101023.06
2022-10-19T12:43:45.222Z,101011.50
2022-10-19T12:46:19.754Z,101023.00
2022-10-19T12:48:46.661Z,101019.50
2022-10-19T12:51:15.630Z,101025.84
2022-10-19T12:53:44.590Z,101033.81
2022-10-19T12:56:15.384Z,101024.00
2022-10-19T12:58:48.144Z,101019.25
2022-10-19T13:01:31.385Z,101011.66
2022-10-19T13:04:16.110Z,101023.03
2022-10-19T13:07:05.516Z,101008.81
2022-10-19T13:09:37.214Z,101006.00
2022-10-19T13:12:20.006Z,101010.94
2022-10-19T13:14:50.948Z,101011.28
2022-10-19T13:17:52.282Z,101010.22
2022-10-19T13:20:20.586Z,101008.81
2022-10-19T13:23:22.347Z,101010.44
2022-10-19T13:26:09.184Z,101008.12
2022-10-19T13:28:40.249Z,101008.22
2022-10-19T13:31:25.607Z,101006.63
2022-10-19T13:33:55.068Z,101005.88
2022-10-19T13:36:25.891Z,101006.03
2022-10-19T13:38:59.214Z,101005.63
2022-10-19T13:41:27.639Z,101008.72
2022-10-19T13:44:19.601Z,101014.56
2022-10-19T13:46:51.663Z,101015.41
2022-10-19T13:49:33.969Z,101018.50
2022-10-19T13:52:13.372Z,101020.44
2022-10-19T13:54:47.499Z,101024.53
2022-10-19T13:57:34.445Z,101019.19
2022-10-19T14:00:09.968Z,101020.00
2022-10-19T14:03:01.951Z,101014.44
2022-10-19T14:05:29.630Z,101018.22
2022-10-19T14:08:15.851Z,101012.94
2022-10-19T14:11:00.210Z,101010.94
2022-10-19T14:13:28.474Z,100999.50
2022-10-19T14:15:56.949Z,101009.22
2022-10-19T14:18:25.246Z,100999.44
2022-10-19T14:21:06.591Z,100996.56
2022-10-19T14:23:34.607Z,100994.50
2022-10-19T14:26:15.779Z,101002.50
2022-10-19T14:28:43.301Z,100995.88
2022-10-19T14:31:11.411Z,100979.78
2022-10-19T14:33:39.793Z,100991.94
2022-10-19T14:36:08.077Z,100997.19
2022-10-19T14:38:37.519Z,100985.53
2022-10-19T14:41:05.657Z,100990.94
2022-10-19T14:43:33.434Z,101000.47
2022-10-19T14:46:12.511Z,100984.66
2022-10-19T14:48:45.703Z,100979.50
2022-10-19T14:51:21.661Z,100984.12
2022-10-19T14:53:48.372Z,100981.88
2022-10-19T14:56:30.087Z,100976.28
2022-10-19T14:58:59.543Z,100978.78
2022-10-19T15:01:26.891Z,100980.75
2022-10-19T15:03:53.914Z,100981.34
2022-10-19T15:06:28.742Z,100977.94
2022-10-19T15:09:01.921Z,100982.66
2022-10-19T15:11:28.714Z,100980.97
2022-10-19T15:14:15.089Z,100982.59
2022-10-19T15:16:54.135Z,100974.62
2022-10-19T15:19:29.265Z,100991.75
2022-10-19T15:22:14.450Z,100980.63
2022-10-19T15:24:55.320Z,100984.00
2022-10-19T15:27:28.685Z,100979.47
2022-10-19T15:29:56.930Z,100983.44
2022-10-19T15:32:25.443Z,100984.06
2022-10-19T15:34:52.818Z,100989.25
2022-10-19T15:37:21.737Z,100984.72
2022-10-19T15:39:48.991Z,100996.75
2022-10-19T15:42:35.662Z,100992.19
2022-10-19T15:45:03.019Z,101000.59
2022-10-19T15:47:30.512Z,100999.66
2022-10-19T15:50:01.463Z,101005.44
2022-10-19T15:52:29.600Z,100996.87
2022-10-19T15:54:57.457Z,101006.97
2022-10-19T15:57:31.875Z,101013.50
2022-10-19T16:00:00.697Z,101000.66
2022-10-19T16:02:27.478Z,101015.69
2022-10-19T16:04:54.584Z,101023.94
2022-10-19T16:07:41.533Z,101013.59
2022-10-19T16:10:09.505Z,101015.97
2022-10-19T16:12:36.173Z,101016.81
2022-10-19T16:15:02.854Z,101022.97
2022-10-19T16:17:29.534Z,101017.72
2022-10-19T16:19:56.138Z,101030.00
2022-10-19T16:22:22.816Z,101032.56
2022-10-19T16:24:49.499Z,101033.91
2022-10-19T16:27:16.568Z,101029.34
2022-10-19T16:29:44.603Z,101045.31
2022-10-19T16:32:11.630Z,101040.53
2022-10-19T16:34:38.756Z,101052.44
2022-10-19T16:37:07.093Z,101046.09
2022-10-19T16:39:34.262Z,101042.31
2022-10-19T16:42:01.787Z,101042.12
2022-10-19T16:44:28.746Z,101044.78
2022-10-19T16:46:58.671Z,101047.75
2022-10-19T16:49:25.835Z,101055.56
2022-10-19T16:51:56.273Z,101058.31
2022-10-19T16:54:29.844Z,101060.25
2022-10-19T16:56:56.971Z,101060.13
2022-10-19T16:59:25.009Z,101063.31
2022-10-19T17:01:51.865Z,101059.75
2022-10-19T17:04:18.626Z,101059.44
2022-10-19T17:06:45.548Z,101065.88
2022-10-19T17:11:59.209Z,101069.69
2022-10-19T17:14:25.998Z,101079.69
2022-10-19T17:16:52.818Z,101091.25
2022-10-19T17:19:19.697Z,101090.56
2022-10-19T17:21:49.528Z,101093.88
2022-10-19T17:24:22.028Z,101091.41
2022-10-19T17:26:50.517Z,101098.00
2022-10-19T17:29:18.363Z,101098.41
2022-10-19T17:31:45.172Z,101101.56
2022-10-19T17:34:12.235Z,101101.59
2022-10-19T17:39:15.641Z,101104.50
2022-10-19T17:41:42.664Z,101111.75
2022-10-19T17:44:09.412Z,101120.63
2022-10-19T17:46:36.441Z,101121.69
2022-10-19T17:49:03.595Z,101124.41
2022-10-19T17:51:31.470Z,101139.00
2022-10-19T17:53:59.969Z,101137.72
2022-10-19T17:56:27.026Z,101132.66
2022-10-19T17:58:54.048Z,101137.03
2022-10-19T18:01:23.044Z,101141.41
2022-10-19T18:03:50.571Z,101138.00
2022-10-19T18:06:18.666Z,101143.16
2022-10-19T18:08:47.125Z,101140.72
2022-10-19T18:11:18.547Z,101157.88
2022-10-19T18:13:45.428Z,101158.00
2022-10-19T18:16:13.716Z,101161.69
2022-10-19T18:18:41.803Z,101157.72
2022-10-19T18:21:12.485Z,101158.00
2022-10-19T18:23:39.725Z,101148.91
2022-10-19T18:26:08.106Z,101166.53
2022-10-19T18:28:36.411Z,101180.25
2022-10-19T18:31:11.168Z,101184.47
2022-10-19T18:33:38.434Z,101184.06
2022-10-19T18:36:08.207Z,101191.56
2022-10-19T18:38:34.950Z,101193.72
2022-10-19T18:41:06.360Z,101190.25
2022-10-19T18:43:33.209Z,101194.56
2022-10-19T18:46:00.547Z,101189.72
2022-10-19T18:48:28.368Z,101194.19
2022-10-19T18:50:55.326Z,101176.78
2022-10-19T18:53:22.383Z,101187.25
2022-10-19T18:55:59.203Z,101201.38
2022-10-19T18:58:26.411Z,101211.59
2022-10-19T19:01:13.430Z,101217.97
2022-10-19T19:03:41.845Z,101217.53
2022-10-19T19:06:10.725Z,101214.13
2022-10-19T19:08:37.621Z,101220.72
2022-10-19T19:11:15.464Z,101233.59
2022-10-19T19:13:42.744Z,101218.44
2022-10-19T19:16:09.879Z,101222.88
2022-10-19T19:18:36.773Z,101222.50
2022-10-19T19:21:04.618Z,101220.44
2022-10-19T19:23:31.812Z,101226.22
2022-10-19T19:25:58.778Z,101222.63
2022-10-19T19:28:25.556Z,101234.34
2022-10-19T19:30:52.285Z,101236.63
2022-10-19T19:33:19.144Z,101233.00
2022-10-19T19:35:46.552Z,101243.78
2022-10-19T19:38:14.017Z,101246.25
2022-10-19T19:40:45.178Z,101239.16
2022-10-19T19:43:13.025Z,101251.97
2022-10-19T19:45:40.254Z,101253.63
2022-10-19T19:48:07.660Z,101256.28
2022-10-19T19:50:34.950Z,101264.44
2022-10-19T19:53:02.365Z,101262.28
2022-10-19T19:55:29.128Z,101261.16
2022-10-19T19:57:55.862Z,101272.44
2022-10-19T20:00:23.113Z,101261.91
2022-10-19T20:02:53.466Z,101279.06
2022-10-19T20:05:20.325Z,101271.72
2022-10-19T20:07:47.150Z,101267.50
2022-10-19T20:10:16.826Z,101270.00
2022-10-19T20:12:43.813Z,101278.09
2022-10-19T20:15:11.152Z,101283.97
2022-10-19T20:17:38.369Z,101276.44
2022-10-19T20:20:05.497Z,101273.69
2022-10-19T20:22:32.196Z,101283.03
2022-10-19T20:24:58.772Z,101278.13
2022-10-19T20:27:26.149Z,101292.06
2022-10-19T20:29:58.732Z,101295.63
2022-10-19T20:32:26.058Z,101291.50
2022-10-19T20:34:53.120Z,101279.94
2022-10-19T20:37:20.122Z,101278.03
2022-10-19T20:39:46.986Z,101284.13
2022-10-19T20:42:14.272Z,101286.56
2022-10-19T20:44:41.128Z,101282.47
2022-10-19T20:47:07.798Z,101278.78
2022-10-19T20:49:34.657Z,101271.22
2022-10-19T20:52:01.272Z,101274.22
2022-10-19T20:54:28.014Z,101275.22
2022-10-19T20:56:54.704Z,101276.69
2022-10-19T20:59:22.255Z,101275.59
2022-10-19T21:01:50.102Z,101280.78
2022-10-19T21:04:16.804Z,101286.12
2022-10-19T21:06:44.865Z,101290.53
2022-10-19T21:09:12.523Z,101300.97
2022-10-19T21:11:40.393Z,101302.88
2022-10-19T21:14:08.748Z,101297.03
2022-10-19T21:16:35.564Z,101309.59
2022-10-19T21:19:03.899Z,101312.00
2022-10-19T21:21:32.126Z,101310.44
2022-10-19T21:24:08.905Z,101313.38
2022-10-19T21:26:36.169Z,101312.44
2022-10-19T21:29:03.396Z,101312.59
2022-10-19T21:31:30.817Z,101315.91
2022-10-19T21:33:57.792Z,101308.94
2022-10-19T21:36:27.738Z,101307.16
2022-10-19T21:38:54.350Z,101300.16
2022-10-19T21:41:25.343Z,101310.69
2022-10-19T21:43:53.192Z,101305.38
2022-10-19T21:46:20.417Z,101305.34
2022-10-19T21:48:47.412Z,101306.22
2022-10-19T21:51:17.053Z,101311.03
2022-10-19T21:53:43.976Z,101313.56
2022-10-19T21:56:10.602Z,101307.75
2022-10-19T21:58:37.232Z,101311.97
2022-10-19T22:01:07.558Z,101310.19
2022-10-19T22:03:34.667Z,101316.28
2022-10-19T22:06:01.400Z,101311.25
2022-10-19T22:08:28.302Z,101327.00
2022-10-19T22:10:54.969Z,101319.06
2022-10-19T22:13:21.577Z,101316.50
2022-10-19T22:15:55.661Z,101320.81
2022-10-19T22:30:41.498Z,101326.31
2022-10-19T22:33:11.879Z,101314.75
2022-10-19T22:35:38.840Z,101310.38
2022-10-19T22:38:07.098Z,101316.59
2022-10-19T22:40:36.574Z,101323.75
2022-10-19T22:43:06.724Z,101331.59
2022-10-19T22:45:36.213Z,101337.75
2022-10-19T22:48:05.442Z,101338.66
2022-10-19T22:50:37.992Z,101337.81
2022-10-19T22:53:12.172Z,101335.25
2022-10-19T22:55:49.942Z,101342.31
2022-10-19T22:58:25.006Z,101334.44
2022-10-19T23:01:07.677Z,101325.69
2022-10-19T23:03:34.429Z,101345.87
2022-10-19T23:06:01.047Z,101347.66
2022-10-19T23:08:28.190Z,101344.12
2022-10-19T23:10:54.847Z,101344.12
2022-10-19T23:13:21.756Z,101352.03
2022-10-19T23:15:48.426Z,101362.56
2022-10-19T23:18:15.145Z,101353.81
2022-10-19T23:20:41.766Z,101350.28
2022-10-19T23:23:09.108Z,101360.41
2022-10-19T23:25:36.966Z,101357.44
2022-10-19T23:28:25.800Z,101351.97
2022-10-19T23:30:52.605Z,101357.31
2022-10-19T23:33:19.248Z,101366.06
2022-10-19T23:35:46.086Z,101366.09
2022-10-19T23:38:12.708Z,101371.34
2022-10-19T23:40:39.439Z,101372.19
2022-10-19T23:43:06.446Z,101364.34
2022-10-19T23:45:33.071Z,101365.16
2022-10-19T23:47:59.676Z,101354.50
2022-10-19T23:50:26.342Z,101367.44
2022-10-19T23:52:52.945Z,101370.03
2022-10-19T23:55:19.570Z,101374.56
2022-10-19T23:57:46.216Z,101382.59
